weather June 11, 2001

2001/06/11 13:00 UTC

CYZF 111300Z 09007KT 15SM FEW130 FEW230 11/00 A2988 RMK AC2CI0 SLP125

2001/06/11 12:00 UTC

CYRT 111200Z 36017KT 15SM FEW030 BKN100 03

2001/06/11 12:00 UTC

The observation is:

CYVP 111200Z 08002KT 15SM FEW070 BKN220 06/M01 A2979 RMK AC1CI3 SLP088

2001/06/11 12:50 UTC

The observation is:

BGBW 111250Z 25008KT 9999 FEW049 BKN090 BKN110 12/06 Q1010



Ads by TOK2